sensor_id;sensor_type;location;lat;lon;timestamp;temperature;humidity
66827;DHT22;53727;45.242;19.796;2022-07-06T00:01:26;563.90;2432.00
66827;DHT22;53727;45.242;19.796;2022-07-06T00:03:52;563.70;2432.00
66827;DHT22;53727;45.242;19.796;2022-07-06T04:13:06;538.10;2406.40
66827;DHT22;53727;45.242;19.796;2022-07-06T04:15:32;538.00;2406.40
66827;DHT22;53727;45.242;19.796;2022-07-06T04:17:57;538.30;2406.40
66827;DHT22;53727;45.242;19.796;2022-07-06T04:20:24;538.20;2406.40
66827;DHT22;53727;45.242;19.796;2022-07-06T04:22:52;538.40;2406.40
66827;DHT22;53727;45.242;19.796;2022-07-06T04:25:18;563.20;2432.00
66827;DHT22;53727;45.242;19.796;2022-07-06T04:27:44;563.30;2432.00
66827;DHT22;53727;45.242;19.796;2022-07-06T04:30:10;538.50;2406.40
66827;DHT22;53727;45.242;19.796;2022-07-06T04:32:37;538.40;2406.40
66827;DHT22;53727;45.242;19.796;2022-07-06T09:45:45;691.50;1971.20
66827;DHT22;53727;45.242;19.796;2022-07-06T09:48:14;691.50;1971.20
66827;DHT22;53727;45.242;19.796;2022-07-06T09:50:44;691.40;1971.20
66827;DHT22;53727;45.242;19.796;2022-07-06T09:53:12;691.20;1996.80
66827;DHT22;53727;45.242;19.796;2022-07-06T09:55:42;691.40;1996.80
66827;DHT22;53727;45.242;19.796;2022-07-06T09:58:08;691.60;1971.20
66827;DHT22;53727;45.242;19.796;2022-07-06T10:03:00;716.90;1945.60
66827;DHT22;53727;45.242;19.796;2022-07-06T10:05:27;691.90;1920.00
66827;DHT22;53727;45.242;19.796;2022-07-06T10:07:59;691.90;1920.00
66827;DHT22;53727;45.242;19.796;2022-07-06T10:10:29;691.70;1971.20
66827;DHT22;53727;45.242;19.796;2022-07-06T10:12:56;691.90;1971.20
66827;DHT22;53727;45.242;19.796;2022-07-06T10:15:24;691.80;1945.60
66827;DHT22;53727;45.242;19.796;2022-07-06T10:17:50;691.90;1920.00
66827;DHT22;53727;45.242;19.796;2022-07-06T10:20:18;692.00;1920.00
66827;DHT22;53727;45.242;19.796;2022-07-06T10:22:44;691.90;1945.60
66827;DHT22;53727;45.242;19.796;2022-07-06T10:25:11;691.90;1920.00
66827;DHT22;53727;45.242;19.796;2022-07-06T10:27:37;692.10;1894.40
66827;DHT22;53727;45.242;19.796;2022-07-06T10:30:05;692.10;1868.80
66827;DHT22;53727;45.242;19.796;2022-07-06T10:32:31;691.90;1894.40
66827;DHT22;53727;45.242;19.796;2022-07-06T10:34:56;691.90;1894.40
66827;DHT22;53727;45.242;19.796;2022-07-06T10:37:26;692.00;1894.40
66827;DHT22;53727;45.242;19.796;2022-07-06T10:39:53;691.90;1894.40
66827;DHT22;53727;45.242;19.796;2022-07-06T10:42:47;691.70;1920.00
66827;DHT22;53727;45.242;19.796;2022-07-06T10:50:45;716.80;1868.80
66827;DHT22;53727;45.242;19.796;2022-07-06T10:53:17;716.90;1894.40
66827;DHT22;53727;45.242;19.796;2022-07-06T10:55:47;692.10;1868.80
66827;DHT22;53727;45.242;19.796;2022-07-06T10:58:38;716.90;1894.40
66827;DHT22;53727;45.242;19.796;2022-07-06T11:01:08;716.80;1894.40
66827;DHT22;53727;45.242;19.796;2022-07-06T11:51:38;743.10;1792.00
66827;DHT22;53727;45.242;19.796;2022-07-06T11:54:15;743.10;1766.40
66827;DHT22;53727;45.242;19.796;2022-07-06T11:59:24;742.60;1792.00
66827;DHT22;53727;45.242;19.796;2022-07-06T12:04:30;742.50;1792.00
66827;DHT22;53727;45.242;19.796;2022-07-06T12:07:01;717.70;1766.40
66827;DHT22;53727;45.242;19.796;2022-07-06T12:09:30;717.60;1792.00
66827;DHT22;53727;45.242;19.796;2022-07-06T12:11:56;717.50;1792.00
66827;DHT22;53727;45.242;19.796;2022-07-06T12:14:22;717.40;1817.60
66827;DHT22;53727;45.242;19.796;2022-07-06T12:16:49;717.70;1817.60
66827;DHT22;53727;45.242;19.796;2022-07-06T12:19:15;742.50;1817.60
66827;DHT22;53727;45.242;19.796;2022-07-06T12:21:46;742.80;1817.60
66827;DHT22;53727;45.242;19.796;2022-07-06T12:24:24;742.80;1792.00
66827;DHT22;53727;45.242;19.796;2022-07-06T12:26:51;743.00;1792.00
66827;DHT22;53727;45.242;19.796;2022-07-06T12:54:15;743.30;1740.80
66827;DHT22;53727;45.242;19.796;2022-07-06T14:10:10;794.40;1561.60
66827;DHT22;53727;45.242;19.796;2022-07-06T14:12:36;793.90;1612.80
66827;DHT22;53727;45.242;19.796;2022-07-06T14:15:02;793.70;1587.20
66827;DHT22;53727;45.242;19.796;2022-07-06T14:17:27;793.70;1612.80
66827;DHT22;53727;45.242;19.796;2022-07-06T14:19:53;793.60;1664.00
66827;DHT22;53727;45.242;19.796;2022-07-06T14:22:19;794.00;1612.80
66827;DHT22;53727;45.242;19.796;2022-07-06T14:24:45;794.20;1612.80
66827;DHT22;53727;45.242;19.796;2022-07-06T14:27:13;794.10;1587.20
66827;DHT22;53727;45.242;19.796;2022-07-06T14:29:39;794.10;1612.80
66827;DHT22;53727;45.242;19.796;2022-07-06T14:32:05;794.10;1587.20
66827;DHT22;53727;45.242;19.796;2022-07-06T14:37:32;794.10;1536.00
66827;DHT22;53727;45.242;19.796;2022-07-06T14:39:58;794.10;1561.60
66827;DHT22;53727;45.242;19.796;2022-07-06T14:42:25;793.90;1587.20
66827;DHT22;53727;45.242;19.796;2022-07-06T14:44:50;793.90;1587.20
66827;DHT22;53727;45.242;19.796;2022-07-06T14:47:16;794.10;1587.20
66827;DHT22;53727;45.242;19.796;2022-07-06T14:49:42;793.90;1638.40
66827;DHT22;53727;45.242;19.796;2022-07-06T14:52:08;793.70;1638.40
66827;DHT22;53727;45.242;19.796;2022-07-06T14:54:35;793.90;1612.80
66827;DHT22;53727;45.242;19.796;2022-07-06T14:57:02;793.90;1612.80
66827;DHT22;53727;45.242;19.796;2022-07-06T14:59:30;793.70;1638.40
66827;DHT22;53727;45.242;19.796;2022-07-06T15:11:41;793.70;1587.20
66827;DHT22;53727;45.242;19.796;2022-07-06T15:53:14;743.20;1612.80
66827;DHT22;53727;45.242;19.796;2022-07-06T15:55:39;743.10;1612.80
66827;DHT22;53727;45.242;19.796;2022-07-06T15:58:05;742.80;1664.00
66827;DHT22;53727;45.242;19.796;2022-07-06T16:00:31;742.80;1689.60
66827;DHT22;53727;45.242;19.796;2022-07-06T16:02:57;742.80;1689.60
66827;DHT22;53727;45.242;19.796;2022-07-06T16:05:23;742.80;1689.60
66827;DHT22;53727;45.242;19.796;2022-07-06T16:07:49;742.60;1689.60
66827;DHT22;53727;45.242;19.796;2022-07-06T16:10:15;742.70;1715.20
66827;DHT22;53727;45.242;19.796;2022-07-06T16:12:41;742.70;1715.20
66827;DHT22;53727;45.242;19.796;2022-07-06T16:15:07;742.70;1689.60
66827;DHT22;53727;45.242;19.796;2022-07-06T16:17:34;742.70;1664.00
66827;DHT22;53727;45.242;19.796;2022-07-06T16:19:59;742.80;1664.00
66827;DHT22;53727;45.242;19.796;2022-07-06T16:22:25;742.70;1638.40
66827;DHT22;53727;45.242;19.796;2022-07-06T16:24:52;742.80;1664.00
66827;DHT22;53727;45.242;19.796;2022-07-06T16:27:18;742.70;1664.00
66827;DHT22;53727;45.242;19.796;2022-07-06T16:29:45;742.80;1664.00
66827;DHT22;53727;45.242;19.796;2022-07-06T16:32:10;742.80;1664.00
66827;DHT22;53727;45.242;19.796;2022-07-06T16:34:36;742.70;1664.00
66827;DHT22;53727;45.242;19.796;2022-07-06T16:37:02;742.60;1664.00
66827;DHT22;53727;45.242;19.796;2022-07-06T16:39:28;742.70;1664.00
66827;DHT22;53727;45.242;19.796;2022-07-06T18:09:40;717.60;1484.80
66827;DHT22;53727;45.242;19.796;2022-07-06T18:12:06;717.40;1484.80
66827;DHT22;53727;45.242;19.796;2022-07-06T18:14:32;717.10;1459.20
66827;DHT22;53727;45.242;19.796;2022-07-06T18:16:58;717.00;1433.60
66827;DHT22;53727;45.242;19.796;2022-07-06T18:19:24;716.90;1408.00
66827;DHT22;53727;45.242;19.796;2022-07-06T18:21:50;716.80;1408.00
66827;DHT22;53727;45.242;19.796;2022-07-06T18:24:16;716.90;1408.00
66827;DHT22;53727;45.242;19.796;2022-07-06T18:26:42;692.10;1382.40
66827;DHT22;53727;45.242;19.796;2022-07-06T18:31:36;692.00;1356.80
66827;DHT22;53727;45.242;19.796;2022-07-06T18:34:03;691.80;1382.40
66827;DHT22;53727;45.242;19.796;2022-07-06T18:36:29;691.70;1382.40
66827;DHT22;53727;45.242;19.796;2022-07-06T18:48:40;691.40;1382.40
66827;DHT22;53727;45.242;19.796;2022-07-06T18:51:06;691.40;1408.00
66827;DHT22;53727;45.242;19.796;2022-07-06T18:53:31;691.30;1408.00
66827;DHT22;53727;45.242;19.796;2022-07-06T18:55:57;691.30;1408.00
